AAL540 KLAX-KLAS
Flight info
| Callsign | AAL540 |
|---|---|
| Flight time | N/A |
| Altitude | 37000 |
| Route | DAG |
| Aircraft | B757/M-V/N |
Departure
| Time | 2026-04-23 04:36 |
|---|---|
| Airport | Los Angeles International Airport (KLAX) |
Arrival
| Time | N/A |
|---|---|
| Airport | Harry Reid International Airport (KLAS) |
| Time | Latitude | Longitude | Altitude | Speed | Heading |
|---|---|---|---|---|---|
| 2026-04-23 04:26 | 33.94107 | -118.40274 | 122 ft | 0 kts | 83° |
| 2026-04-23 04:29 | 33.94106 | -118.40279 | 118 ft | 0 kts | 83° |
| 2026-04-23 04:30 | 33.94106 | -118.40283 | 118 ft | 2 kts | 83° |
| 2026-04-23 04:30 | 33.94103 | -118.40318 | 118 ft | 5 kts | 83° |
| 2026-04-23 04:30 | 33.94098 | -118.40368 | 118 ft | 5 kts | 83° |
| 2026-04-23 04:31 | 33.94095 | -118.40390 | 118 ft | 0 kts | 83° |
| 2026-04-23 04:31 | 33.94096 | -118.40373 | 118 ft | 7 kts | 95° |
| 2026-04-23 04:31 | 33.94042 | -118.40321 | 119 ft | 3 kts | 167° |
| 2026-04-23 04:32 | 33.94040 | -118.40321 | 119 ft | 0 kts | 169° |
| 2026-04-23 04:32 | 33.94022 | -118.40319 | 119 ft | 5 kts | 173° |
| 2026-04-23 04:32 | 33.93942 | -118.40302 | 118 ft | 15 kts | 172° |
| 2026-04-23 04:33 | 33.93883 | -118.40294 | 119 ft | 0 kts | 174° |
| 2026-04-23 04:33 | 33.93873 | -118.40290 | 119 ft | 4 kts | 155° |
| 2026-04-23 04:33 | 33.93856 | -118.40234 | 118 ft | 10 kts | 82° |
| 2026-04-23 04:33 | 33.93865 | -118.40160 | 118 ft | 14 kts | 82° |
| 2026-04-23 04:34 | 33.93877 | -118.40044 | 116 ft | 20 kts | 83° |
| 2026-04-23 04:34 | 33.93897 | -118.39842 | 112 ft | 27 kts | 83° |
| 2026-04-23 04:34 | 33.93923 | -118.39583 | 109 ft | 32 kts | 83° |
| 2026-04-23 04:34 | 33.93950 | -118.39318 | 106 ft | 31 kts | 83° |
| 2026-04-23 04:35 | 33.93975 | -118.39069 | 104 ft | 29 kts | 83° |
| 2026-04-23 04:35 | 33.93986 | -118.38864 | 102 ft | 19 kts | 114° |
| 2026-04-23 04:35 | 33.93894 | -118.38866 | 102 ft | 18 kts | 259° |
| 2026-04-23 04:35 | 33.93865 | -118.39161 | 106 ft | 65 kts | 264° |
| 2026-04-23 04:36 | 33.93780 | -118.40005 | 116 ft | 135 kts | 263° |
| 2026-04-23 04:36 | 33.93663 | -118.41270 | 631 ft | 154 kts | 264° |
| 2026-04-23 04:36 | 33.93740 | -118.42534 | 1375 ft | 160 kts | 290° |
| 2026-04-23 04:36 | 33.94383 | -118.43686 | 1774 ft | 174 kts | 317° |
| 2026-04-23 04:37 | 33.95512 | -118.44484 | 1984 ft | 204 kts | 345° |
| 2026-04-23 04:37 | 33.96981 | -118.44500 | 1947 ft | 220 kts | 13° |
| 2026-04-23 04:37 | 33.98334 | -118.43656 | 1875 ft | 221 kts | 39° |
| 2026-04-23 04:37 | 33.99549 | -118.42522 | 1912 ft | 213 kts | 31° |
| 2026-04-23 04:38 | 34.00760 | -118.41554 | 1947 ft | 209 kts | 33° |
| 2026-04-23 04:38 | 34.01852 | -118.40672 | 1964 ft | 209 kts | 33° |
| 2026-04-23 04:38 | 34.03073 | -118.39677 | 1957 ft | 211 kts | 34° |
| 2026-04-23 04:38 | 34.04305 | -118.38697 | 1938 ft | 211 kts | 26° |
| 2026-04-23 04:39 | 34.05717 | -118.38556 | 1988 ft | 208 kts | 339° |
| 2026-04-23 04:39 | 34.06938 | -118.39507 | 2002 ft | 208 kts | 321° |
| 2026-04-23 04:39 | 34.08078 | -118.40617 | 1950 ft | 208 kts | 320° |
| 2026-04-23 04:39 | 34.09426 | -118.41196 | 1995 ft | 223 kts | 4° |
| 2026-04-23 04:40 | 34.10943 | -118.40646 | 1995 ft | 223 kts | 22° |
| 2026-04-23 04:40 | 34.12351 | -118.39918 | 1957 ft | 219 kts | 26° |
| 2026-04-23 04:40 | 34.13541 | -118.38749 | 1994 ft | 219 kts | 46° |
| 2026-04-23 04:40 | 34.14373 | -118.37229 | 1980 ft | 222 kts | 75° |
| 2026-04-23 04:41 | 34.14372 | -118.35379 | 1976 ft | 221 kts | 110° |
| 2026-04-23 04:41 | 34.13515 | -118.33875 | 1974 ft | 219 kts | 144° |
| 2026-04-23 04:41 | 34.12130 | -118.33205 | 1992 ft | 217 kts | 172° |
| 2026-04-23 04:41 | 34.10622 | -118.32900 | 1969 ft | 218 kts | 171° |
| 2026-04-23 04:42 | 34.09116 | -118.32609 | 1953 ft | 217 kts | 172° |
| 2026-04-23 04:42 | 34.07639 | -118.32315 | 1955 ft | 216 kts | 171° |
| 2026-04-23 04:42 | 34.06143 | -118.32026 | 1962 ft | 217 kts | 172° |
| 2026-04-23 04:42 | 34.04666 | -118.31641 | 1940 ft | 219 kts | 156° |
| 2026-04-23 04:43 | 34.03310 | -118.30750 | 1965 ft | 219 kts | 150° |
| 2026-04-23 04:43 | 34.01974 | -118.29845 | 1954 ft | 218 kts | 152° |
| 2026-04-23 04:43 | 34.00765 | -118.28713 | 1942 ft | 219 kts | 126° |
| 2026-04-23 04:43 | 34.00048 | -118.27080 | 1978 ft | 221 kts | 115° |
| 2026-04-23 04:44 | 33.99387 | -118.25430 | 1956 ft | 220 kts | 118° |
| 2026-04-23 04:44 | 33.98725 | -118.23769 | 1948 ft | 218 kts | 114° |
| 2026-04-23 04:44 | 33.98058 | -118.22098 | 1954 ft | 219 kts | 118° |
| 2026-04-23 04:44 | 33.97398 | -118.20445 | 1954 ft | 220 kts | 114° |
| 2026-04-23 04:45 | 33.96726 | -118.18769 | 1952 ft | 222 kts | 118° |
| 2026-04-23 04:45 | 33.96251 | -118.17006 | 1959 ft | 221 kts | 103° |
| 2026-04-23 04:45 | 33.95959 | -118.15174 | 1951 ft | 223 kts | 99° |
| 2026-04-23 04:45 | 33.95356 | -118.13485 | 1962 ft | 219 kts | 133° |
| 2026-04-23 04:46 | 33.94114 | -118.12465 | 1962 ft | 218 kts | 165° |
| 2026-04-23 04:46 | 33.92605 | -118.12458 | 1967 ft | 217 kts | 200° |
| 2026-04-23 04:46 | 33.91387 | -118.13477 | 1967 ft | 218 kts | 234° |
| 2026-04-23 04:46 | 33.90818 | -118.15295 | 2016 ft | 258 kts | 265° |
| 2026-04-23 04:47 | 33.91083 | -118.17490 | 1966 ft | 263 kts | 292° |
| 2026-04-23 04:47 | 33.92041 | -118.19234 | 2027 ft | 243 kts | 306° |
| 2026-04-23 04:47 | 33.93056 | -118.20837 | 1945 ft | 230 kts | 307° |
| 2026-04-23 04:47 | 33.93989 | -118.22325 | 1934 ft | 215 kts | 306° |
| 2026-04-23 04:48 | 33.94870 | -118.23702 | 1929 ft | 200 kts | 310° |
| 2026-04-23 04:48 | 33.95761 | -118.24891 | 1911 ft | 184 kts | 315° |
| 2026-04-23 04:48 | 33.96617 | -118.26017 | 1912 ft | 183 kts | 307° |
| 2026-04-23 04:48 | 33.97336 | -118.27296 | 1950 ft | 186 kts | 283° |
| 2026-04-23 04:49 | 33.97492 | -118.28844 | 1961 ft | 188 kts | 272° |
| 2026-04-23 04:49 | 33.97533 | -118.30425 | 1848 ft | 190 kts | 257° |
| 2026-04-23 04:49 | 33.97043 | -118.31843 | 1923 ft | 167 kts | 239° |
| 2026-04-23 04:49 | 33.96409 | -118.32977 | 1735 ft | 156 kts | 235° |
| 2026-04-23 04:50 | 33.95819 | -118.34023 | 1491 ft | 148 kts | 239° |
| 2026-04-23 04:50 | 33.95434 | -118.35120 | 1275 ft | 137 kts | 257° |
| 2026-04-23 04:50 | 33.95300 | -118.36240 | 985 ft | 135 kts | 266° |
| 2026-04-23 04:50 | 33.95246 | -118.37334 | 736 ft | 131 kts | 266° |
| 2026-04-23 04:51 | 33.95181 | -118.38439 | 473 ft | 130 kts | 264° |
| 2026-04-23 04:51 | 33.95085 | -118.39479 | 267 ft | 123 kts | 263° |
| 2026-04-23 04:51 | 33.95018 | -118.40583 | 524 ft | 140 kts | 271° |
| 2026-04-23 04:51 | 33.95493 | -118.41663 | 986 ft | 165 kts | 321° |
| 2026-04-23 04:52 | 33.96694 | -118.41952 | 1353 ft | 191 kts | 6° |
| 2026-04-23 04:52 | 33.98019 | -118.41344 | 1100 ft | 218 kts | 40° |
| 2026-04-23 04:52 | 33.98796 | -118.39859 | 1072 ft | 213 kts | 83° |
| 2026-04-23 04:52 | 33.98531 | -118.38178 | 1087 ft | 205 kts | 122° |
| 2026-04-23 04:53 | 33.97540 | -118.36996 | 1043 ft | 204 kts | 156° |
| 2026-04-23 04:53 | 33.96201 | -118.36948 | 992 ft | 195 kts | 209° |
| 2026-04-23 04:53 | 33.95274 | -118.38180 | 604 ft | 208 kts | 250° |
| 2026-04-23 04:53 | 33.95020 | -118.39792 | 311 ft | 195 kts | 264° |
| 2026-04-23 04:54 | 33.94919 | -118.41322 | 345 ft | 166 kts | 268° |
| 2026-04-23 04:54 | 33.95353 | -118.42628 | 918 ft | 185 kts | 312° |
| 2026-04-23 04:54 | 33.96535 | -118.43295 | 868 ft | 197 kts | 2° |
| 2026-04-23 04:54 | 33.97701 | -118.42602 | 1102 ft | 194 kts | 53° |
| 2026-04-23 04:55 | 33.98008 | -118.41032 | 1183 ft | 205 kts | 101° |
| 2026-04-23 04:55 | 33.97670 | -118.39410 | 1361 ft | 189 kts | 107° |
| 2026-04-23 04:55 | 33.97154 | -118.38167 | 1521 ft | 145 kts | 137° |
| 2026-04-23 04:55 | 33.96284 | -118.37666 | 1173 ft | 144 kts | 174° |
| 2026-04-23 04:56 | 33.95327 | -118.37871 | 941 ft | 145 kts | 217° |
| 2026-04-23 04:56 | 33.95024 | -118.38966 | 512 ft | 148 kts | 281° |
| 2026-04-23 04:56 | 33.95016 | -118.40178 | 214 ft | 139 kts | 262° |
| 2026-04-23 04:56 | 33.94915 | -118.41252 | 130 ft | 122 kts | 262° |
| 2026-04-23 04:57 | 33.94853 | -118.42266 | 340 ft | 122 kts | 269° |
| 2026-04-23 04:57 | 33.95390 | -118.42981 | 379 ft | 153 kts | 28° |
| 2026-04-23 04:57 | 33.95701 | -118.41916 | 778 ft | 161 kts | 107° |
| 2026-04-23 04:57 | 33.95034 | -118.40653 | 451 ft | 207 kts | 87° |
| 2026-04-23 04:58 | 33.94237 | -118.39775 | 694 ft | 173 kts | 197° |
| 2026-04-23 04:58 | 33.93675 | -118.40837 | 220 ft | 155 kts | 265° |
| 2026-04-23 04:58 | 33.93581 | -118.41981 | 118 ft | 121 kts | 257° |
| 2026-04-23 04:58 | 33.93577 | -118.42651 | 97 ft | 12 kts | 32° |
| 2026-04-23 04:59 | 33.93568 | -118.42657 | 97 ft | 0 kts | 358° |